createdAt,value
2017-11-12T10:58:41.435Z,0.00
2017-11-12T10:59:41.390Z,0.00
2017-11-12T11:01:33.227Z,0.00
2017-11-12T11:02:33.175Z,0.00
2017-11-12T11:04:24.982Z,0.00
2017-11-12T11:05:24.966Z,0.00
2017-11-12T11:07:17.834Z,0.00
2017-11-12T11:08:17.785Z,0.00
2017-11-12T11:10:29.508Z,0.00
2017-11-12T11:11:29.459Z,0.00
2017-11-12T11:13:21.318Z,0.00
2017-11-12T11:14:21.269Z,0.00
2017-11-12T11:15:27.180Z,0.00
2017-11-12T11:16:19.117Z,0.00
2017-11-12T11:18:01.719Z,0.00
2017-11-12T11:19:01.731Z,0.00
2017-11-12T11:20:53.534Z,0.00
2017-11-12T11:21:53.491Z,0.00
2017-11-12T11:22:39.560Z,0.00
2017-11-12T11:23:39.534Z,0.00
2017-11-12T11:33:26.153Z,0.00
2017-11-12T11:34:26.087Z,0.00
2017-11-12T11:36:17.939Z,0.00
2017-11-12T11:37:55.548Z,0.00
2017-11-12T11:38:55.512Z,0.00
2017-11-12T11:41:01.252Z,0.00
2017-11-12T12:04:17.887Z,0.00
2017-11-12T12:06:40.644Z,213.75
2017-11-12T12:07:40.518Z,202.50
2017-11-12T12:09:33.668Z,191.25
2017-11-12T12:10:33.461Z,196.88
2017-11-12T12:12:26.411Z,185.63
2017-11-12T12:13:26.325Z,185.63
2017-11-12T12:15:19.317Z,202.50
2017-11-12T12:16:19.272Z,191.25
2017-11-12T12:18:12.321Z,191.25
2017-11-12T12:19:12.127Z,202.50
2017-11-12T12:21:05.108Z,191.25
2017-11-12T12:22:05.068Z,163.13
2017-11-12T12:23:57.938Z,123.75
2017-11-12T12:24:57.878Z,118.13
2017-11-12T12:26:50.967Z,118.13
2017-11-12T12:27:50.872Z,123.75
2017-11-12T12:29:43.838Z,118.13
2017-11-12T12:30:43.730Z,112.50
2017-11-12T12:32:36.648Z,135.00
2017-11-12T12:33:36.626Z,151.88
2017-11-12T12:36:08.131Z,90.00
2017-11-12T12:37:08.040Z,101.25
2017-11-12T12:39:00.948Z,95.63
2017-11-12T12:40:00.885Z,95.63
2017-11-12T12:41:53.764Z,101.25
2017-11-12T12:42:53.738Z,90.00
2017-11-12T12:44:57.836Z,196.88
2017-11-12T12:45:57.748Z,225.00
2017-11-12T12:47:50.792Z,264.38
2017-11-12T12:48:50.693Z,281.25
2017-11-12T12:50:43.740Z,258.75
2017-11-12T12:51:43.652Z,258.75
2017-11-12T12:53:36.686Z,213.75
2017-11-12T12:54:36.604Z,213.75
2017-11-12T12:56:07.500Z,241.88
2017-11-12T12:57:07.441Z,253.13
2017-11-12T12:59:00.418Z,286.88
2017-11-12T13:00:00.466Z,286.88
2017-11-12T13:01:53.341Z,275.63
2017-11-12T13:02:53.248Z,275.63
2017-11-12T13:04:46.124Z,258.75
2017-11-12T13:05:46.145Z,253.13
2017-11-12T13:07:39.042Z,202.50
2017-11-12T13:08:38.951Z,174.38
2017-11-12T13:10:31.886Z,163.13
2017-11-12T13:11:31.804Z,202.50
2017-11-12T13:13:24.948Z,191.25
2017-11-12T13:14:24.745Z,213.75
2017-11-12T13:16:17.801Z,123.75
2017-11-12T13:17:17.605Z,118.13
2017-11-12T13:19:10.754Z,118.13
2017-11-12T13:20:10.709Z,118.13
2017-11-12T13:22:03.709Z,196.88
2017-11-12T13:23:03.492Z,225.00
2017-11-12T13:24:56.657Z,247.50
2017-11-12T13:25:56.457Z,225.00
2017-11-12T13:27:49.623Z,253.13
2017-11-12T13:28:49.398Z,247.50
2017-11-12T13:30:42.419Z,298.13
2017-11-12T13:31:42.520Z,292.50
2017-11-12T13:33:37.058Z,253.13
2017-11-12T13:34:35.823Z,286.88
2017-11-12T13:36:28.978Z,208.13
2017-11-12T13:37:28.768Z,219.38
2017-11-12T13:39:21.931Z,219.38
2017-11-12T13:40:21.721Z,185.63
2017-11-12T13:42:14.737Z,140.63
2017-11-12T13:43:14.835Z,101.25
2017-11-12T13:45:08.769Z,90.00
2017-11-12T13:46:07.543Z,106.88
2017-11-12T13:48:00.556Z,129.38
2017-11-12T13:49:00.485Z,163.13
2017-11-12T13:50:53.472Z,180.00
2017-11-12T13:51:53.444Z,185.63
2017-11-12T13:53:46.444Z,151.88
2017-11-12T13:54:46.391Z,135.00
2017-11-12T13:56:39.346Z,146.25
2017-11-12T13:57:39.244Z,146.25
2017-11-12T13:59:32.201Z,135.00
2017-11-12T14:00:32.105Z,129.38
2017-11-12T14:02:24.978Z,112.50
2017-11-12T14:03:24.951Z,112.50
2017-11-12T14:05:17.880Z,112.50
2017-11-12T14:06:17.804Z,101.25
2017-11-12T14:08:10.736Z,90.00
2017-11-12T14:09:10.654Z,84.38
2017-11-12T14:11:03.613Z,78.75
2017-11-12T14:12:03.521Z,78.75
2017-11-12T14:13:56.385Z,78.75
2017-11-12T14:14:56.348Z,73.13
2017-11-12T14:16:49.258Z,73.13
2017-11-12T14:17:49.206Z,78.75
2017-11-12T14:19:42.139Z,78.75
2017-11-12T14:20:42.053Z,84.38
2017-11-12T14:22:34.993Z,84.38
2017-11-12T14:23:34.892Z,95.63
2017-11-12T14:25:27.850Z,101.25
2017-11-12T14:26:27.766Z,106.88
2017-11-12T14:28:20.651Z,135.00
2017-11-12T14:29:20.656Z,129.38
2017-11-12T14:31:13.566Z,112.50
2017-11-12T14:32:13.496Z,112.50
2017-11-12T14:34:06.400Z,95.63
2017-11-12T14:35:06.306Z,90.00
2017-11-12T14:36:59.190Z,78.75
2017-11-12T14:37:59.157Z,84.38
2017-11-12T14:39:52.073Z,90.00
2017-11-12T14:40:52.003Z,84.38
2017-11-12T14:42:44.957Z,61.88
2017-11-12T14:43:44.858Z,56.25
2017-11-12T14:45:37.819Z,56.25
2017-11-12T14:46:37.712Z,61.88
2017-11-12T14:48:30.597Z,50.63
2017-11-12T14:49:30.552Z,56.25
2017-11-12T14:51:23.509Z,61.88
2017-11-12T14:52:23.444Z,67.50
2017-11-12T14:54:16.354Z,73.13
2017-11-12T14:55:16.259Z,67.50
2017-11-12T14:57:09.197Z,56.25
2017-11-12T14:58:09.110Z,56.25
2017-11-12T15:00:02.049Z,50.63
2017-11-12T15:01:01.970Z,45.00
2017-11-12T15:02:55.025Z,61.88
2017-11-12T15:03:54.865Z,61.88
2017-11-12T15:05:47.902Z,61.88
2017-11-12T15:06:47.680Z,61.88
2017-11-12T15:08:40.625Z,50.63
2017-11-12T15:09:40.517Z,45.00
2017-11-12T15:11:34.474Z,50.63
2017-11-12T15:12:33.368Z,50.63
2017-11-12T15:14:26.301Z,33.75
2017-11-12T15:15:26.208Z,33.75
2017-11-12T15:17:19.149Z,28.13
2017-11-12T15:18:19.072Z,22.50
2017-11-12T15:20:12.006Z,16.88
2017-11-12T15:21:11.927Z,16.88
2017-11-12T15:23:04.854Z,11.25
2017-11-12T15:24:04.759Z,16.88
2017-11-12T15:25:57.720Z,16.88
2017-11-12T15:26:57.633Z,16.88
2017-11-12T15:28:50.488Z,11.25
2017-11-12T15:29:50.514Z,11.25
2017-11-12T15:31:43.413Z,11.25
2017-11-12T15:32:43.368Z,5.63
2017-11-12T15:34:36.264Z,5.63
2017-11-12T15:35:36.158Z,5.63
2017-11-12T15:37:29.122Z,5.63
2017-11-12T15:38:29.023Z,5.63
2017-11-12T15:40:21.967Z,0.00
2017-11-12T15:41:21.926Z,0.00
2017-11-12T15:43:14.816Z,0.00
2017-11-12T15:44:14.714Z,0.00
2017-11-12T15:46:07.604Z,0.00
2017-11-12T15:47:07.602Z,0.00
2017-11-12T15:49:01.535Z,0.00
2017-11-12T15:50:01.445Z,0.00
2017-11-12T15:51:54.389Z,0.00
2017-11-12T15:52:54.293Z,0.00
2017-11-12T15:54:47.243Z,0.00
2017-11-12T15:55:47.144Z,0.00
2017-11-12T15:57:40.048Z,0.00
2017-11-12T15:58:39.990Z,0.00
2017-11-12T16:00:32.948Z,0.00
2017-11-12T16:01:32.844Z,0.00
2017-11-12T16:03:25.749Z,0.00
2017-11-12T16:04:25.699Z,0.00
2017-11-12T16:06:18.644Z,0.00
2017-11-12T16:07:18.548Z,0.00
2017-11-12T16:09:11.440Z,0.00
2017-11-12T16:10:11.398Z,0.00
2017-11-12T16:12:04.344Z,0.00
2017-11-12T16:13:04.268Z,0.00
2017-11-12T16:14:57.150Z,0.00
2017-11-12T16:15:57.108Z,0.00
2017-11-12T16:17:49.978Z,0.00
2017-11-12T16:18:49.956Z,0.00
2017-11-12T16:20:42.856Z,0.00
2017-11-12T16:21:42.787Z,0.00
2017-11-12T16:23:35.745Z,0.00
2017-11-12T16:24:35.650Z,0.00
2017-11-12T16:26:28.597Z,0.00
2017-11-12T16:27:28.502Z,0.00
2017-11-12T16:29:21.454Z,0.00
2017-11-12T16:30:21.349Z,0.00
2017-11-12T16:32:14.258Z,0.00
2017-11-12T16:33:14.194Z,0.00
2017-11-12T16:35:07.143Z,0.00
2017-11-12T16:36:07.053Z,0.00
2017-11-12T16:37:59.995Z,0.00
2017-11-12T16:38:59.901Z,0.00
2017-11-12T16:40:52.844Z,0.00
2017-11-12T16:41:52.754Z,0.00
2017-11-12T16:43:45.627Z,0.00
2017-11-12T16:44:45.601Z,0.00
2017-11-12T16:46:38.554Z,0.00
2017-11-12T16:47:38.441Z,0.00
2017-11-12T16:49:31.400Z,0.00
2017-11-12T16:50:31.291Z,0.00
2017-11-12T16:52:24.252Z,0.00
2017-11-12T16:53:24.162Z,0.00
2017-11-12T16:55:17.036Z,0.00
2017-11-12T16:56:17.052Z,0.00
2017-11-12T16:58:09.920Z,0.00
2017-11-12T16:59:09.846Z,0.00
2017-11-12T17:01:02.797Z,0.00
2017-11-12T17:02:02.702Z,0.00
2017-11-12T17:03:55.617Z,0.00
2017-11-12T17:04:55.604Z,0.00
2017-11-12T17:06:48.429Z,0.00
2017-11-12T17:07:48.400Z,0.00
2017-11-12T17:09:41.449Z,0.00
2017-11-12T17:10:41.260Z,0.00
2017-11-12T17:12:34.214Z,0.00
2017-11-12T17:13:34.106Z,0.00
2017-11-12T17:15:27.012Z,0.00
2017-11-12T17:16:26.961Z,0.00
2017-11-12T17:18:19.828Z,0.00
2017-11-12T17:19:19.812Z,0.00
2017-11-12T17:21:12.717Z,0.00
2017-11-12T17:22:12.657Z,0.00
2017-11-12T17:24:05.603Z,0.00
2017-11-12T17:25:05.508Z,0.00
2017-11-12T17:26:58.455Z,0.00
2017-11-12T17:27:58.369Z,0.00
2017-11-12T17:29:51.242Z,0.00
2017-11-12T17:30:51.209Z,0.00
2017-11-12T17:32:44.118Z,0.00
2017-11-12T17:33:44.052Z,0.00
2017-11-12T17:35:37.001Z,0.00
2017-11-12T17:36:36.913Z,0.00
2017-11-12T17:38:29.864Z,0.00
2017-11-12T17:39:29.763Z,0.00
2017-11-12T17:41:22.641Z,0.00
2017-11-12T17:42:22.663Z,0.00
2017-11-12T17:44:15.550Z,0.00
2017-11-12T17:45:15.468Z,0.00
2017-11-12T17:47:08.405Z,0.00
2017-11-12T17:48:08.319Z,0.00
2017-11-12T17:50:01.256Z,0.00
2017-11-12T17:51:01.168Z,0.00
2017-11-12T17:52:54.040Z,0.00
2017-11-12T17:53:54.014Z,0.00
2017-11-12T17:55:46.962Z,0.00
2017-11-12T17:56:46.862Z,0.00
2017-11-12T17:58:39.967Z,0.00
2017-11-12T17:59:39.728Z,0.00
2017-11-12T18:00:39.774Z,0.00
2017-11-12T18:01:39.657Z,0.00
2017-11-12T18:02:39.678Z,0.00
2017-11-12T18:03:39.608Z,0.00
2017-11-12T18:04:39.690Z,0.00
2017-11-12T18:05:39.561Z,0.00
2017-11-12T18:06:39.606Z,0.00
2017-11-12T18:07:39.506Z,0.00
2017-11-12T18:08:39.514Z,0.00
2017-11-12T18:09:39.450Z,0.00
2017-11-12T18:10:39.525Z,0.00
2017-11-12T18:11:39.404Z,0.00
2017-11-12T18:12:39.436Z,0.00
2017-11-12T18:13:39.343Z,0.00
2017-11-12T18:14:39.346Z,0.00
2017-11-12T18:15:39.301Z,0.00
2017-11-12T18:16:39.362Z,0.00
2017-11-12T18:17:39.244Z,0.00
2017-11-12T18:18:39.267Z,0.00
2017-11-12T18:19:39.198Z,0.00
2017-11-12T18:20:39.282Z,0.00
2017-11-12T18:21:39.139Z,0.00
2017-11-12T18:22:39.189Z,0.00
2017-11-12T18:23:39.094Z,0.00
2017-11-12T18:24:39.105Z,0.00
2017-11-12T18:25:39.042Z,0.00
2017-11-12T18:26:39.110Z,0.00
2017-11-12T18:27:38.988Z,0.00
2017-11-12T18:28:38.985Z,0.00
2017-11-12T18:29:38.932Z,0.00
2017-11-12T18:30:38.931Z,0.00
2017-11-12T18:31:38.886Z,0.00
2017-11-12T18:32:38.947Z,0.00
2017-11-12T18:33:38.822Z,0.00
2017-11-12T18:34:38.850Z,0.00
2017-11-12T18:35:38.776Z,0.00
2017-11-12T18:36:38.870Z,0.00
2017-11-12T18:37:38.721Z,0.00
2017-11-12T18:38:38.774Z,0.00
2017-11-12T18:39:38.678Z,0.00
2017-11-12T18:40:38.688Z,0.00
2017-11-12T18:41:38.622Z,0.00
2017-11-12T18:42:38.705Z,0.00
2017-11-12T18:43:38.571Z,0.00
2017-11-12T18:44:38.614Z,0.00
2017-11-12T18:45:38.515Z,0.00
2017-11-12T18:46:38.520Z,0.00
2017-11-12T18:47:38.459Z,0.00
2017-11-12T18:48:38.533Z,0.00
2017-11-12T18:49:38.411Z,0.00
2017-11-12T18:50:38.918Z,0.00
2017-11-12T18:51:38.358Z,0.00
2017-11-12T18:52:38.349Z,0.00
2017-11-12T18:53:38.300Z,0.00
2017-11-12T18:54:38.365Z,0.00
2017-11-12T18:55:38.255Z,0.00
2017-11-12T18:56:38.234Z,0.00
2017-11-12T18:57:38.210Z,0.00
2017-11-12T18:58:38.285Z,0.00
2017-11-12T18:59:38.157Z,0.00
2017-11-12T19:00:38.218Z,0.00
2017-11-12T19:01:38.127Z,0.00
2017-11-12T19:02:38.103Z,0.00
2017-11-12T19:03:38.048Z,0.00
2017-11-12T19:04:38.203Z,0.00
2017-11-12T19:05:37.994Z,0.00
2017-11-12T19:06:38.024Z,0.00
2017-11-12T19:07:37.941Z,0.00
2017-11-12T19:08:37.950Z,0.00
2017-11-12T19:09:37.909Z,0.00
2017-11-12T19:10:37.952Z,0.00
2017-11-12T19:11:37.850Z,0.00
2017-11-12T19:12:37.859Z,0.00
2017-11-12T19:13:37.784Z,0.00
2017-11-12T19:14:37.878Z,0.00
2017-11-12T19:15:37.825Z,0.00
2017-11-12T19:16:37.783Z,0.00
2017-11-12T19:17:37.680Z,0.00
2017-11-12T19:18:37.657Z,0.00
2017-11-12T19:19:37.639Z,0.00
2017-11-12T19:20:37.703Z,0.00
2017-11-12T19:21:37.596Z,0.00
2017-11-12T19:22:37.616Z,0.00
2017-11-12T19:23:37.541Z,0.00
2017-11-12T19:24:37.520Z,0.00
2017-11-12T19:25:37.477Z,0.00
2017-11-12T19:26:37.565Z,0.00
2017-11-12T19:27:37.436Z,0.00
2017-11-12T19:28:37.456Z,0.00
2017-11-12T19:29:37.376Z,0.00
2017-11-12T19:30:37.461Z,0.00
2017-11-12T19:31:37.332Z,0.00
2017-11-12T19:32:37.370Z,0.00
2017-11-12T19:33:37.288Z,0.00
2017-11-12T19:34:37.310Z,0.00
2017-11-12T19:35:37.225Z,0.00
2017-11-12T19:36:37.205Z,0.00
2017-11-12T19:37:37.178Z,0.00
2017-11-12T19:38:37.206Z,0.00
2017-11-12T19:39:37.121Z,0.00
2017-11-12T19:40:37.108Z,0.00
2017-11-12T19:41:37.074Z,0.00
2017-11-12T19:42:37.128Z,0.00
2017-11-12T19:43:37.009Z,0.00
2017-11-12T19:44:37.032Z,0.00
2017-11-12T19:45:36.957Z,0.00
2017-11-12T19:46:37.043Z,0.00
2017-11-12T19:47:36.936Z,0.00
2017-11-12T19:48:36.922Z,0.00
2017-11-12T19:49:36.881Z,0.00
2017-11-12T19:50:36.970Z,0.00
2017-11-12T19:51:36.850Z,0.00
2017-11-12T19:52:36.879Z,0.00
2017-11-12T19:53:36.759Z,0.00
2017-11-12T19:54:36.787Z,0.00
2017-11-12T19:55:36.717Z,0.00
2017-11-12T19:56:36.801Z,0.00
2017-11-12T19:57:36.665Z,0.00
2017-11-12T19:58:36.710Z,0.00
2017-11-12T19:59:36.600Z,0.00
2017-11-12T20:00:36.620Z,0.00
2017-11-12T20:01:36.567Z,0.00
2017-11-12T20:02:36.642Z,0.00
2017-11-12T20:03:36.516Z,0.00
2017-11-12T20:04:36.541Z,0.00
2017-11-12T20:05:36.521Z,0.00
2017-11-12T20:06:36.554Z,0.00
2017-11-12T20:07:36.413Z,0.00
2017-11-12T20:08:36.462Z,0.00
2017-11-12T20:09:36.367Z,0.00
2017-11-12T20:10:36.406Z,0.00
2017-11-12T20:11:36.318Z,0.00
2017-11-12T20:12:36.382Z,0.00
2017-11-12T20:13:36.271Z,0.00
2017-11-12T20:14:36.292Z,0.00
2017-11-12T20:15:36.197Z,0.00
2017-11-12T20:16:36.208Z,0.00
2017-11-12T20:17:36.148Z,0.00
2017-11-12T20:18:36.218Z,0.00
2017-11-12T20:19:36.090Z,0.00
2017-11-12T20:20:36.132Z,0.00
2017-11-12T20:21:36.027Z,0.00
2017-11-12T20:22:36.035Z,0.00
2017-11-12T20:23:35.976Z,0.00
2017-11-12T20:24:36.046Z,0.00
2017-11-12T20:25:35.936Z,0.00
2017-11-12T20:26:35.961Z,0.00
2017-11-12T20:27:35.882Z,0.00
2017-11-12T20:28:35.867Z,0.00
2017-11-12T20:29:35.838Z,0.00
2017-11-12T20:30:35.883Z,0.00
2017-11-12T20:31:35.768Z,0.00
2017-11-12T20:32:35.793Z,0.00
2017-11-12T20:33:35.742Z,0.00
2017-11-12T20:34:35.701Z,0.00
2017-11-12T20:35:35.711Z,0.00
2017-11-12T20:36:35.654Z,0.00
2017-11-12T20:37:35.725Z,0.00
2017-11-12T20:38:35.584Z,0.00
2017-11-12T20:39:35.558Z,0.00
2017-11-12T20:40:35.531Z,0.00
2017-11-12T20:41:35.548Z,0.00
2017-11-12T20:42:35.484Z,0.00
2017-11-12T20:43:35.552Z,0.00
2017-11-12T20:44:35.425Z,0.00
2017-11-12T20:45:35.468Z,0.00
2017-11-12T20:46:35.407Z,0.00
2017-11-12T20:47:35.371Z,0.00
2017-11-12T20:48:35.331Z,0.00
2017-11-12T20:49:35.383Z,0.00
2017-11-12T20:50:35.268Z,0.00
2017-11-12T20:51:36.329Z,0.00
2017-11-12T20:52:35.217Z,0.00
2017-11-12T20:53:35.310Z,0.00
2017-11-12T20:54:35.166Z,0.00
2017-11-12T20:55:35.226Z,0.00
2017-11-12T20:56:35.124Z,0.00
2017-11-12T20:57:35.141Z,0.00
2017-11-12T20:58:35.067Z,0.00
2017-11-12T20:59:35.037Z,0.00
2017-11-12T21:00:35.046Z,0.00
2017-11-12T21:01:34.987Z,0.00
2017-11-12T21:02:35.068Z,0.00
2017-11-12T21:03:34.929Z,0.00
2017-11-12T21:04:34.916Z,0.00
2017-11-12T21:05:34.881Z,0.00
2017-11-12T21:06:34.890Z,0.00
2017-11-12T21:07:34.834Z,0.00
2017-11-12T21:08:34.890Z,0.00
2017-11-12T21:09:34.780Z,0.00
2017-11-12T21:10:34.799Z,0.00
2017-11-12T21:11:34.734Z,0.00
2017-11-12T21:12:35.899Z,0.00
2017-11-12T21:13:34.677Z,0.00
2017-11-12T21:14:34.720Z,0.00
2017-11-12T21:15:34.643Z,0.00
2017-11-12T21:16:34.631Z,0.00
2017-11-12T21:17:34.566Z,0.00
2017-11-12T21:18:34.554Z,0.00
2017-11-12T21:19:34.529Z,0.00
2017-11-12T21:20:34.560Z,0.00
2017-11-12T21:21:34.476Z,0.00
2017-11-12T21:22:34.465Z,0.00
2017-11-12T21:23:34.419Z,0.00
2017-11-12T21:24:34.477Z,0.00
2017-11-12T21:25:34.374Z,0.00
2017-11-12T21:26:34.387Z,0.00
2017-11-12T21:27:34.308Z,0.00
2017-11-12T21:28:34.292Z,0.00
2017-11-12T21:29:34.262Z,0.00
2017-11-12T21:30:34.306Z,0.00
2017-11-12T21:31:34.209Z,0.00
2017-11-12T21:32:34.223Z,0.00
2017-11-12T21:33:34.174Z,0.00
2017-11-12T21:34:34.242Z,0.00
2017-11-12T21:35:34.111Z,0.00
2017-11-12T21:36:34.135Z,0.00
2017-11-12T21:37:34.063Z,0.00
2017-11-12T21:38:34.047Z,0.00
2017-11-12T21:39:34.010Z,0.00
2017-11-12T21:40:34.061Z,0.00
2017-11-12T21:41:33.970Z,0.00
2017-11-12T21:42:33.975Z,0.00
2017-11-12T21:43:33.904Z,0.00
2017-11-12T21:44:33.988Z,0.00
2017-11-12T21:45:33.858Z,0.00
2017-11-12T21:46:33.893Z,0.00
2017-11-12T21:47:33.803Z,0.00
2017-11-12T21:48:33.805Z,0.00
2017-11-12T21:49:33.743Z,0.00
2017-11-12T21:50:33.814Z,0.00
2017-11-12T21:51:33.690Z,0.00
2017-11-12T21:52:33.726Z,0.00
2017-11-12T21:53:33.638Z,0.00
2017-11-12T21:54:33.635Z,0.00
2017-11-12T21:55:33.593Z,0.00
2017-11-12T21:56:33.568Z,0.00
2017-11-12T21:57:33.547Z,0.00
2017-11-12T21:58:33.514Z,0.00
2017-11-12T21:59:33.564Z,0.00
2017-11-12T22:00:33.464Z,0.00
2017-11-12T22:01:33.427Z,0.00
2017-11-12T22:02:33.404Z,0.00
2017-11-12T22:03:33.486Z,0.00
2017-11-12T22:04:33.360Z,0.00
2017-11-12T22:05:33.394Z,0.00
2017-11-12T22:06:33.296Z,0.00
2017-11-12T22:07:33.311Z,0.00
2017-11-12T22:08:33.254Z,0.00
2017-11-12T22:09:33.255Z,0.00
2017-11-12T22:10:33.203Z,0.00
2017-11-12T22:11:34.258Z,0.00
2017-11-12T22:12:33.139Z,0.00
2017-11-12T22:13:33.247Z,0.00
2017-11-12T22:14:33.097Z,0.00
2017-11-12T22:15:33.066Z,0.00
2017-11-12T22:16:33.049Z,0.00
2017-11-12T22:17:33.061Z,0.00
2017-11-12T22:18:32.985Z,0.00
2017-11-12T22:19:33.076Z,0.00
2017-11-12T22:20:32.945Z,0.00
2017-11-12T22:21:34.011Z,0.00
2017-11-12T22:22:32.892Z,0.00
2017-11-12T22:23:32.901Z,0.00
2017-11-12T22:24:32.831Z,0.00
2017-11-12T22:25:32.905Z,0.00
2017-11-12T22:26:32.782Z,0.00
2017-11-12T22:27:32.811Z,0.00
2017-11-12T22:28:32.743Z,0.00
2017-11-12T22:29:32.734Z,0.00
2017-11-12T22:30:33.752Z,0.00
2017-11-12T22:31:32.656Z,0.00
2017-11-12T22:32:32.743Z,0.00
2017-11-12T22:33:32.607Z,0.00
2017-11-12T22:34:32.656Z,0.00
2017-11-12T22:35:32.546Z,0.00
2017-11-12T22:36:32.565Z,0.00
2017-11-12T22:37:32.500Z,0.00
2017-11-12T22:38:32.574Z,0.00
2017-11-12T22:39:32.450Z,0.00
2017-11-12T22:40:32.490Z,0.00
2017-11-12T22:41:32.388Z,0.00
2017-11-12T22:42:32.392Z,0.00
2017-11-12T22:43:32.352Z,0.00
2017-11-12T22:44:32.316Z,0.00
2017-11-12T22:45:32.312Z,0.00
2017-11-12T22:46:32.259Z,0.00
2017-11-12T22:47:32.324Z,0.00
2017-11-12T22:48:32.208Z,0.00
2017-11-12T22:49:32.192Z,0.00
2017-11-12T22:50:32.154Z,0.00
2017-11-12T22:51:32.249Z,0.00
2017-11-12T22:52:32.108Z,0.00
2017-11-12T22:53:32.156Z,0.00
2017-11-12T22:54:32.056Z,0.00
2017-11-12T22:55:32.067Z,0.00
2017-11-12T22:56:32.001Z,0.00
2017-11-12T22:57:31.980Z,0.00
2017-11-12T22:58:31.955Z,0.00
2017-11-12T22:59:31.987Z,0.00
2017-11-12T23:00:31.906Z,0.00
2017-11-12T23:01:32.919Z,0.00
2017-11-12T23:02:31.857Z,0.00
2017-11-12T23:03:31.820Z,0.00
2017-11-12T23:04:31.917Z,0.00
2017-11-12T23:05:31.774Z,0.00
2017-11-12T23:06:31.825Z,0.00
2017-11-12T23:07:31.721Z,0.00
2017-11-12T23:08:31.736Z,0.00
2017-11-12T23:09:31.675Z,0.00
2017-11-12T23:10:31.754Z,0.00
2017-11-12T23:11:31.622Z,0.00
2017-11-12T23:12:31.596Z,0.00
2017-11-12T23:13:31.566Z,0.00
2017-11-12T23:14:31.566Z,0.00
2017-11-12T23:15:31.515Z,0.00
2017-11-12T23:16:31.580Z,0.00
2017-11-12T23:17:31.464Z,0.00
2017-11-12T23:18:31.490Z,0.00
2017-11-12T23:19:31.418Z,0.00
2017-11-12T23:20:31.407Z,0.00
2017-11-12T23:21:31.365Z,0.00
2017-11-12T23:22:31.415Z,0.00
2017-11-12T23:23:31.306Z,0.00
2017-11-12T23:24:31.320Z,0.00
2017-11-12T23:25:31.258Z,0.00
2017-11-12T23:26:31.338Z,0.00
2017-11-12T23:27:31.199Z,0.00
2017-11-12T23:28:31.246Z,0.00
2017-11-12T23:29:31.152Z,0.00
2017-11-12T23:30:31.160Z,0.00
2017-11-12T23:31:31.106Z,0.00
2017-11-12T23:32:31.169Z,0.00
2017-11-12T23:33:31.056Z,0.00
2017-11-12T23:34:31.076Z,0.00
2017-11-12T23:35:30.992Z,0.00
2017-11-12T23:36:31.089Z,0.00
2017-11-12T23:37:30.952Z,0.00
2017-11-12T23:38:30.924Z,0.00
2017-11-12T23:39:30.890Z,0.00
2017-11-12T23:40:30.910Z,0.00
2017-11-12T23:41:30.839Z,0.00
2017-11-12T23:42:30.922Z,0.00
2017-11-12T23:43:30.789Z,0.00
2017-11-12T23:44:30.832Z,0.00
2017-11-12T23:45:30.739Z,0.00
2017-11-12T23:46:30.751Z,0.00
2017-11-12T23:47:30.682Z,0.00
2017-11-12T23:48:30.759Z,0.00
2017-11-12T23:49:30.640Z,0.00
2017-11-12T23:50:30.664Z,0.00
2017-11-12T23:51:30.589Z,0.00
2017-11-12T23:52:30.574Z,0.00
2017-11-12T23:53:30.537Z,0.00
2017-11-12T23:54:30.586Z,0.00
2017-11-12T23:55:30.489Z,0.00
2017-11-12T23:56:30.510Z,0.00
2017-11-12T23:57:30.507Z,0.00
2017-11-12T23:58:30.401Z,0.00
2017-11-12T23:59:30.414Z,0.00
